sensor_id;sensor_type;location;lat;lon;timestamp;P1;durP1;ratioP1;P2;durP2;ratioP2
22939;SDS011;11636;52.086;5.090;2023-08-07T00:01:32;15.82;;;3.08;;
22939;SDS011;11636;52.086;5.090;2023-08-07T00:04:26;19.15;;;3.60;;
22939;SDS011;11636;52.086;5.090;2023-08-07T00:07:20;11.52;;;2.75;;
22939;SDS011;11636;52.086;5.090;2023-08-07T00:10:14;11.70;;;2.70;;
22939;SDS011;11636;52.086;5.090;2023-08-07T00:13:01;17.33;;;3.80;;
22939;SDS011;11636;52.086;5.090;2023-08-07T00:15:55;17.73;;;3.25;;
22939;SDS011;11636;52.086;5.090;2023-08-07T00:18:49;14.30;;;3.00;;
22939;SDS011;11636;52.086;5.090;2023-08-07T00:21:39;13.35;;;3.25;;
22939;SDS011;11636;52.086;5.090;2023-08-07T00:24:32;16.02;;;3.80;;
22939;SDS011;11636;52.086;5.090;2023-08-07T00:27:19;13.65;;;3.15;;
22939;SDS011;11636;52.086;5.090;2023-08-07T00:30:13;10.77;;;3.08;;
22939;SDS011;11636;52.086;5.090;2023-08-07T00:33:01;17.65;;;3.97;;
22939;SDS011;11636;52.086;5.090;2023-08-07T00:35:54;10.63;;;2.90;;
22939;SDS011;11636;52.086;5.090;2023-08-07T00:38:48;12.85;;;2.47;;
22939;SDS011;11636;52.086;5.090;2023-08-07T00:41:43;12.73;;;2.58;;
22939;SDS011;11636;52.086;5.090;2023-08-07T00:44:30;11.32;;;2.35;;
22939;SDS011;11636;52.086;5.090;2023-08-07T00:47:24;7.95;;;2.50;;
22939;SDS011;11636;52.086;5.090;2023-08-07T00:50:19;11.75;;;2.38;;
22939;SDS011;11636;52.086;5.090;2023-08-07T00:53:09;11.98;;;2.75;;
22939;SDS011;11636;52.086;5.090;2023-08-07T00:56:03;10.13;;;2.22;;
22939;SDS011;11636;52.086;5.090;2023-08-07T00:59:00;12.35;;;2.53;;
22939;SDS011;11636;52.086;5.090;2023-08-07T01:01:48;14.32;;;2.72;;
22939;SDS011;11636;52.086;5.090;2023-08-07T01:04:42;16.08;;;3.55;;
22939;SDS011;11636;52.086;5.090;2023-08-07T01:07:36;9.60;;;2.20;;
22939;SDS011;11636;52.086;5.090;2023-08-07T01:10:44;10.90;;;2.90;;
22939;SDS011;11636;52.086;5.090;2023-08-07T01:14:10;12.93;;;3.08;;
22939;SDS011;11636;52.086;5.090;2023-08-07T01:17:16;12.02;;;3.60;;
22939;SDS011;11636;52.086;5.090;2023-08-07T01:20:06;14.13;;;2.85;;
22939;SDS011;11636;52.086;5.090;2023-08-07T01:23:00;10.95;;;2.53;;
22939;SDS011;11636;52.086;5.090;2023-08-07T01:25:54;13.82;;;3.25;;
22939;SDS011;11636;52.086;5.090;2023-08-07T01:28:50;12.23;;;3.08;;
22939;SDS011;11636;52.086;5.090;2023-08-07T01:31:56;15.43;;;3.80;;
22939;SDS011;11636;52.086;5.090;2023-08-07T01:34:51;13.05;;;3.30;;
22939;SDS011;11636;52.086;5.090;2023-08-07T01:37:47;10.05;;;2.70;;
22939;SDS011;11636;52.086;5.090;2023-08-07T01:40:37;10.25;;;2.70;;
22939;SDS011;11636;52.086;5.090;2023-08-07T01:43:31;10.27;;;2.45;;
22939;SDS011;11636;52.086;5.090;2023-08-07T01:46:20;14.20;;;2.65;;
22939;SDS011;11636;52.086;5.090;2023-08-07T01:49:14;11.98;;;2.90;;
22939;SDS011;11636;52.086;5.090;2023-08-07T01:52:01;11.38;;;2.97;;
22939;SDS011;11636;52.086;5.090;2023-08-07T01:54:55;9.95;;;2.55;;
22939;SDS011;11636;52.086;5.090;2023-08-07T01:57:49;9.57;;;2.40;;
22939;SDS011;11636;52.086;5.090;2023-08-07T02:00:36;11.35;;;2.85;;
22939;SDS011;11636;52.086;5.090;2023-08-07T02:03:30;14.75;;;3.20;;
22939;SDS011;11636;52.086;5.090;2023-08-07T02:06:24;11.02;;;2.83;;
22939;SDS011;11636;52.086;5.090;2023-08-07T02:09:18;13.95;;;3.17;;
22939;SDS011;11636;52.086;5.090;2023-08-07T02:12:05;16.02;;;3.25;;
22939;SDS011;11636;52.086;5.090;2023-08-07T02:14:59;11.73;;;3.40;;
22939;SDS011;11636;52.086;5.090;2023-08-07T02:17:47;13.32;;;2.75;;
22939;SDS011;11636;52.086;5.090;2023-08-07T02:20:40;15.88;;;2.97;;
22939;SDS011;11636;52.086;5.090;2023-08-07T02:23:27;13.90;;;3.00;;
22939;SDS011;11636;52.086;5.090;2023-08-07T02:26:21;12.52;;;3.55;;
22939;SDS011;11636;52.086;5.090;2023-08-07T02:29:15;12.05;;;2.88;;
22939;SDS011;11636;52.086;5.090;2023-08-07T02:32:03;14.55;;;3.50;;
22939;SDS011;11636;52.086;5.090;2023-08-07T02:34:56;13.88;;;3.03;;
22939;SDS011;11636;52.086;5.090;2023-08-07T02:37:50;13.52;;;3.05;;
22939;SDS011;11636;52.086;5.090;2023-08-07T02:40:37;16.70;;;3.10;;
22939;SDS011;11636;52.086;5.090;2023-08-07T02:43:31;14.05;;;3.17;;
22939;SDS011;11636;52.086;5.090;2023-08-07T02:46:20;14.05;;;3.38;;
22939;SDS011;11636;52.086;5.090;2023-08-07T02:49:14;16.30;;;3.33;;
22939;SDS011;11636;52.086;5.090;2023-08-07T02:52:01;15.63;;;3.28;;
22939;SDS011;11636;52.086;5.090;2023-08-07T02:54:55;19.58;;;3.90;;
22939;SDS011;11636;52.086;5.090;2023-08-07T02:57:49;18.88;;;3.63;;
22939;SDS011;11636;52.086;5.090;2023-08-07T03:00:36;21.15;;;4.70;;
22939;SDS011;11636;52.086;5.090;2023-08-07T03:03:30;11.32;;;3.40;;
22939;SDS011;11636;52.086;5.090;2023-08-07T03:06:32;11.27;;;2.78;;
22939;SDS011;11636;52.086;5.090;2023-08-07T03:09:25;12.23;;;2.85;;
22939;SDS011;11636;52.086;5.090;2023-08-07T03:12:19;16.75;;;3.15;;
22939;SDS011;11636;52.086;5.090;2023-08-07T03:15:13;14.00;;;3.03;;
22939;SDS011;11636;52.086;5.090;2023-08-07T03:18:00;15.32;;;2.95;;
22939;SDS011;11636;52.086;5.090;2023-08-07T03:20:57;13.73;;;3.30;;
22939;SDS011;11636;52.086;5.090;2023-08-07T03:23:45;11.45;;;3.15;;
22939;SDS011;11636;52.086;5.090;2023-08-07T03:26:38;10.85;;;2.75;;
22939;SDS011;11636;52.086;5.090;2023-08-07T03:29:26;14.82;;;3.20;;
22939;SDS011;11636;52.086;5.090;2023-08-07T03:32:19;14.30;;;2.80;;
22939;SDS011;11636;52.086;5.090;2023-08-07T03:35:13;9.18;;;2.40;;
22939;SDS011;11636;52.086;5.090;2023-08-07T03:38:01;13.85;;;3.30;;
22939;SDS011;11636;52.086;5.090;2023-08-07T03:40:54;13.68;;;3.28;;
22939;SDS011;11636;52.086;5.090;2023-08-07T03:43:48;10.38;;;3.03;;
22939;SDS011;11636;52.086;5.090;2023-08-07T03:46:35;10.98;;;2.92;;
22939;SDS011;11636;52.086;5.090;2023-08-07T03:49:29;9.85;;;2.55;;
22939;SDS011;11636;52.086;5.090;2023-08-07T03:52:23;11.05;;;2.70;;
22939;SDS011;11636;52.086;5.090;2023-08-07T03:55:10;11.10;;;2.70;;
22939;SDS011;11636;52.086;5.090;2023-08-07T03:58:04;11.05;;;2.78;;
22939;SDS011;11636;52.086;5.090;2023-08-07T04:00:51;9.38;;;2.65;;
22939;SDS011;11636;52.086;5.090;2023-08-07T04:03:48;11.43;;;2.97;;
22939;SDS011;11636;52.086;5.090;2023-08-07T04:06:36;16.17;;;3.03;;
22939;SDS011;11636;52.086;5.090;2023-08-07T04:09:29;15.93;;;2.92;;
22939;SDS011;11636;52.086;5.090;2023-08-07T04:12:18;10.95;;;2.92;;
22939;SDS011;11636;52.086;5.090;2023-08-07T04:15:11;16.98;;;3.60;;
22939;SDS011;11636;52.086;5.090;2023-08-07T04:17:38;12.65;;;3.03;;
22939;SDS011;11636;52.086;5.090;2023-08-07T04:20:11;10.68;;;2.70;;
22939;SDS011;11636;52.086;5.090;2023-08-07T04:22:45;10.27;;;2.85;;
22939;SDS011;11636;52.086;5.090;2023-08-07T04:25:19;14.30;;;3.20;;
22939;SDS011;11636;52.086;5.090;2023-08-07T04:27:52;18.02;;;3.47;;
22939;SDS011;11636;52.086;5.090;2023-08-07T04:30:19;18.25;;;3.70;;
22939;SDS011;11636;52.086;5.090;2023-08-07T04:32:46;13.43;;;3.08;;
22939;SDS011;11636;52.086;5.090;2023-08-07T04:35:19;12.90;;;2.92;;
22939;SDS011;11636;52.086;5.090;2023-08-07T04:37:52;12.38;;;3.03;;
22939;SDS011;11636;52.086;5.090;2023-08-07T04:40:19;17.75;;;3.55;;
22939;SDS011;11636;52.086;5.090;2023-08-07T04:42:52;19.85;;;4.22;;
22939;SDS011;11636;52.086;5.090;2023-08-07T04:45:25;19.48;;;3.70;;
22939;SDS011;11636;52.086;5.090;2023-08-07T04:48:00;19.13;;;3.70;;
22939;SDS011;11636;52.086;5.090;2023-08-07T04:50:27;18.98;;;4.10;;
22939;SDS011;11636;52.086;5.090;2023-08-07T04:53:01;22.02;;;4.20;;
22939;SDS011;11636;52.086;5.090;2023-08-07T04:55:28;13.52;;;3.63;;
22939;SDS011;11636;52.086;5.090;2023-08-07T04:58:01;16.65;;;4.28;;
22939;SDS011;11636;52.086;5.090;2023-08-07T05:00:34;11.80;;;3.03;;
22939;SDS011;11636;52.086;5.090;2023-08-07T05:03:02;12.10;;;3.13;;
22939;SDS011;11636;52.086;5.090;2023-08-07T05:05:29;18.17;;;4.07;;
22939;SDS011;11636;52.086;5.090;2023-08-07T05:08:02;17.40;;;3.53;;
22939;SDS011;11636;52.086;5.090;2023-08-07T05:10:35;14.75;;;3.90;;
22939;SDS011;11636;52.086;5.090;2023-08-07T05:13:02;8.43;;;2.88;;
22939;SDS011;11636;52.086;5.090;2023-08-07T05:15:54;19.80;;;3.80;;
22939;SDS011;11636;52.086;5.090;2023-08-07T05:18:41;17.08;;;3.88;;
22939;SDS011;11636;52.086;5.090;2023-08-07T05:21:36;12.55;;;3.50;;
22939;SDS011;11636;52.086;5.090;2023-08-07T05:24:29;14.57;;;3.67;;
22939;SDS011;11636;52.086;5.090;2023-08-07T05:27:28;14.50;;;3.08;;
22939;SDS011;11636;52.086;5.090;2023-08-07T05:30:21;14.07;;;3.63;;
22939;SDS011;11636;52.086;5.090;2023-08-07T05:33:09;14.98;;;3.10;;
22939;SDS011;11636;52.086;5.090;2023-08-07T05:36:02;12.20;;;3.13;;
22939;SDS011;11636;52.086;5.090;2023-08-07T05:38:51;14.85;;;3.72;;
22939;SDS011;11636;52.086;5.090;2023-08-07T05:41:45;15.57;;;3.85;;
22939;SDS011;11636;52.086;5.090;2023-08-07T05:44:33;13.93;;;3.35;;
22939;SDS011;11636;52.086;5.090;2023-08-07T05:47:26;13.57;;;3.92;;
22939;SDS011;11636;52.086;5.090;2023-08-07T05:50:21;12.02;;;3.53;;
22939;SDS011;11636;52.086;5.090;2023-08-07T05:53:08;14.27;;;3.47;;
22939;SDS011;11636;52.086;5.090;2023-08-07T05:56:01;10.63;;;3.35;;
22939;SDS011;11636;52.086;5.090;2023-08-07T05:58:49;16.83;;;3.90;;
22939;SDS011;11636;52.086;5.090;2023-08-07T06:01:42;15.85;;;3.90;;
22939;SDS011;11636;52.086;5.090;2023-08-07T06:04:37;11.07;;;3.50;;
22939;SDS011;11636;52.086;5.090;2023-08-07T06:07:31;12.05;;;3.42;;
22939;SDS011;11636;52.086;5.090;2023-08-07T06:10:25;14.73;;;4.05;;
22939;SDS011;11636;52.086;5.090;2023-08-07T06:13:20;13.25;;;3.50;;
22939;SDS011;11636;52.086;5.090;2023-08-07T06:16:21;14.32;;;3.10;;
22939;SDS011;11636;52.086;5.090;2023-08-07T06:19:15;15.05;;;4.40;;
22939;SDS011;11636;52.086;5.090;2023-08-07T06:22:16;15.48;;;3.33;;
22939;SDS011;11636;52.086;5.090;2023-08-07T06:25:10;14.18;;;3.50;;
22939;SDS011;11636;52.086;5.090;2023-08-07T06:28:04;14.10;;;3.63;;
22939;SDS011;11636;52.086;5.090;2023-08-07T06:30:51;12.00;;;2.97;;
22939;SDS011;11636;52.086;5.090;2023-08-07T06:33:45;13.93;;;3.60;;
22939;SDS011;11636;52.086;5.090;2023-08-07T06:36:32;12.85;;;3.10;;
22939;SDS011;11636;52.086;5.090;2023-08-07T06:39:26;10.25;;;3.20;;
22939;SDS011;11636;52.086;5.090;2023-08-07T06:42:20;13.07;;;3.13;;
22939;SDS011;11636;52.086;5.090;2023-08-07T06:45:07;14.77;;;3.60;;
22939;SDS011;11636;52.086;5.090;2023-08-07T06:48:02;14.80;;;3.78;;
22939;SDS011;11636;52.086;5.090;2023-08-07T06:50:49;12.73;;;3.45;;
22939;SDS011;11636;52.086;5.090;2023-08-07T06:53:44;12.93;;;3.22;;
22939;SDS011;11636;52.086;5.090;2023-08-07T06:56:38;9.63;;;3.65;;
22939;SDS011;11636;52.086;5.090;2023-08-07T06:59:34;14.07;;;3.55;;
22939;SDS011;11636;52.086;5.090;2023-08-07T07:02:21;12.05;;;3.53;;
22939;SDS011;11636;52.086;5.090;2023-08-07T07:05:15;9.77;;;3.03;;
22939;SDS011;11636;52.086;5.090;2023-08-07T07:08:09;11.88;;;3.03;;
22939;SDS011;11636;52.086;5.090;2023-08-07T07:10:56;14.30;;;3.55;;
22939;SDS011;11636;52.086;5.090;2023-08-07T07:13:51;15.52;;;3.33;;
22939;SDS011;11636;52.086;5.090;2023-08-07T07:16:39;16.52;;;3.97;;
22939;SDS011;11636;52.086;5.090;2023-08-07T07:19:33;12.88;;;2.92;;
22939;SDS011;11636;52.086;5.090;2023-08-07T07:22:20;12.40;;;3.28;;
22939;SDS011;11636;52.086;5.090;2023-08-07T07:25:14;13.15;;;2.90;;
22939;SDS011;11636;52.086;5.090;2023-08-07T07:28:01;15.48;;;3.72;;
22939;SDS011;11636;52.086;5.090;2023-08-07T07:31:02;15.05;;;3.58;;
22939;SDS011;11636;52.086;5.090;2023-08-07T07:33:50;14.07;;;3.28;;
22939;SDS011;11636;52.086;5.090;2023-08-07T07:36:44;16.33;;;3.80;;
22939;SDS011;11636;52.086;5.090;2023-08-07T07:39:31;17.05;;;3.80;;
22939;SDS011;11636;52.086;5.090;2023-08-07T07:42:27;15.82;;;3.75;;
22939;SDS011;11636;52.086;5.090;2023-08-07T07:45:14;18.98;;;3.13;;
22939;SDS011;11636;52.086;5.090;2023-08-07T07:48:08;20.85;;;3.70;;
22939;SDS011;11636;52.086;5.090;2023-08-07T07:50:59;18.75;;;3.33;;
22939;SDS011;11636;52.086;5.090;2023-08-07T07:53:56;15.95;;;3.75;;
22939;SDS011;11636;52.086;5.090;2023-08-07T07:57:00;16.67;;;2.90;;
22939;SDS011;11636;52.086;5.090;2023-08-07T07:59:54;11.90;;;3.00;;
22939;SDS011;11636;52.086;5.090;2023-08-07T08:02:41;14.30;;;2.90;;
22939;SDS011;11636;52.086;5.090;2023-08-07T08:05:36;10.13;;;2.65;;
22939;SDS011;11636;52.086;5.090;2023-08-07T08:08:29;12.75;;;2.83;;
22939;SDS011;11636;52.086;5.090;2023-08-07T08:11:23;15.05;;;3.40;;
22939;SDS011;11636;52.086;5.090;2023-08-07T08:14:10;13.80;;;2.92;;
22939;SDS011;11636;52.086;5.090;2023-08-07T08:17:04;13.18;;;2.83;;
22939;SDS011;11636;52.086;5.090;2023-08-07T08:19:51;12.90;;;3.47;;
22939;SDS011;11636;52.086;5.090;2023-08-07T08:22:45;11.43;;;2.80;;
22939;SDS011;11636;52.086;5.090;2023-08-07T08:25:39;11.88;;;3.00;;
22939;SDS011;11636;52.086;5.090;2023-08-07T08:28:33;13.75;;;3.10;;
22939;SDS011;11636;52.086;5.090;2023-08-07T08:31:27;14.73;;;2.88;;
22939;SDS011;11636;52.086;5.090;2023-08-07T08:34:14;11.10;;;3.00;;
22939;SDS011;11636;52.086;5.090;2023-08-07T08:37:08;14.35;;;2.55;;
22939;SDS011;11636;52.086;5.090;2023-08-07T08:39:57;11.15;;;2.63;;
22939;SDS011;11636;52.086;5.090;2023-08-07T08:42:51;16.75;;;3.00;;
22939;SDS011;11636;52.086;5.090;2023-08-07T08:45:40;13.45;;;2.80;;
22939;SDS011;11636;52.086;5.090;2023-08-07T08:48:35;12.88;;;2.65;;
22939;SDS011;11636;52.086;5.090;2023-08-07T08:51:25;11.85;;;2.78;;
22939;SDS011;11636;52.086;5.090;2023-08-07T08:54:19;11.85;;;2.80;;
22939;SDS011;11636;52.086;5.090;2023-08-07T08:57:07;10.95;;;3.05;;
22939;SDS011;11636;52.086;5.090;2023-08-07T09:00:01;11.63;;;3.30;;
22939;SDS011;11636;52.086;5.090;2023-08-07T09:03:00;10.90;;;2.92;;
22939;SDS011;11636;52.086;5.090;2023-08-07T09:05:57;10.50;;;2.70;;
22939;SDS011;11636;52.086;5.090;2023-08-07T09:08:45;9.07;;;2.42;;
22939;SDS011;11636;52.086;5.090;2023-08-07T09:11:43;12.27;;;3.03;;
22939;SDS011;11636;52.086;5.090;2023-08-07T09:14:39;9.35;;;2.78;;
22939;SDS011;11636;52.086;5.090;2023-08-07T09:17:40;13.70;;;3.08;;
22939;SDS011;11636;52.086;5.090;2023-08-07T09:20:28;14.48;;;3.53;;
22939;SDS011;11636;52.086;5.090;2023-08-07T09:23:23;10.73;;;3.20;;
22939;SDS011;11636;52.086;5.090;2023-08-07T09:26:12;12.15;;;2.97;;
22939;SDS011;11636;52.086;5.090;2023-08-07T09:29:06;10.65;;;3.00;;
22939;SDS011;11636;52.086;5.090;2023-08-07T09:31:54;12.27;;;3.00;;
22939;SDS011;11636;52.086;5.090;2023-08-07T09:34:48;9.20;;;2.83;;
22939;SDS011;11636;52.086;5.090;2023-08-07T09:37:43;12.43;;;3.20;;
22939;SDS011;11636;52.086;5.090;2023-08-07T09:40:30;11.90;;;2.72;;
22939;SDS011;11636;52.086;5.090;2023-08-07T09:43:24;11.75;;;2.90;;
22939;SDS011;11636;52.086;5.090;2023-08-07T09:46:11;11.30;;;3.25;;
22939;SDS011;11636;52.086;5.090;2023-08-07T09:49:05;12.88;;;2.83;;
22939;SDS011;11636;52.086;5.090;2023-08-07T09:51:52;11.10;;;2.80;;
22939;SDS011;11636;52.086;5.090;2023-08-07T09:54:46;11.45;;;2.80;;
22939;SDS011;11636;52.086;5.090;2023-08-07T09:57:40;9.27;;;2.67;;
22939;SDS011;11636;52.086;5.090;2023-08-07T10:00:36;7.47;;;2.47;;
22939;SDS011;11636;52.086;5.090;2023-08-07T10:03:24;13.85;;;2.70;;
22939;SDS011;11636;52.086;5.090;2023-08-07T10:06:19;11.77;;;2.60;;
22939;SDS011;11636;52.086;5.090;2023-08-07T10:09:06;13.93;;;2.80;;
22939;SDS011;11636;52.086;5.090;2023-08-07T10:12:02;8.73;;;2.55;;
22939;SDS011;11636;52.086;5.090;2023-08-07T10:14:56;11.43;;;2.85;;
22939;SDS011;11636;52.086;5.090;2023-08-07T10:17:51;13.20;;;2.80;;
22939;SDS011;11636;52.086;5.090;2023-08-07T10:20:38;12.80;;;3.17;;
22939;SDS011;11636;52.086;5.090;2023-08-07T10:23:35;15.38;;;2.50;;
22939;SDS011;11636;52.086;5.090;2023-08-07T10:26:24;11.55;;;2.90;;
22939;SDS011;11636;52.086;5.090;2023-08-07T10:29:18;13.88;;;2.70;;
22939;SDS011;11636;52.086;5.090;2023-08-07T10:32:17;12.82;;;2.70;;
22939;SDS011;11636;52.086;5.090;2023-08-07T10:35:34;12.07;;;2.45;;
22939;SDS011;11636;52.086;5.090;2023-08-07T10:38:27;8.95;;;2.67;;
22939;SDS011;11636;52.086;5.090;2023-08-07T10:41:14;14.18;;;2.97;;
22939;SDS011;11636;52.086;5.090;2023-08-07T10:44:51;9.35;;;2.55;;
22939;SDS011;11636;52.086;5.090;2023-08-07T10:47:32;11.32;;;2.83;;
22939;SDS011;11636;52.086;5.090;2023-08-07T10:50:33;11.43;;;2.40;;
22939;SDS011;11636;52.086;5.090;2023-08-07T10:53:35;11.13;;;2.50;;
22939;SDS011;11636;52.086;5.090;2023-08-07T10:56:31;12.27;;;2.58;;
22939;SDS011;11636;52.086;5.090;2023-08-07T10:59:27;9.57;;;2.35;;
22939;SDS011;11636;52.086;5.090;2023-08-07T11:02:26;11.23;;;2.47;;
22939;SDS011;11636;52.086;5.090;2023-08-07T11:05:22;8.93;;;2.30;;
22939;SDS011;11636;52.086;5.090;2023-08-07T11:08:21;10.18;;;2.42;;
22939;SDS011;11636;52.086;5.090;2023-08-07T11:11:16;8.05;;;1.88;;
22939;SDS011;11636;52.086;5.090;2023-08-07T11:14:03;12.88;;;2.83;;
22939;SDS011;11636;52.086;5.090;2023-08-07T11:16:57;12.50;;;3.20;;
22939;SDS011;11636;52.086;5.090;2023-08-07T11:19:48;10.02;;;2.30;;
22939;SDS011;11636;52.086;5.090;2023-08-07T11:22:41;7.38;;;2.30;;
22939;SDS011;11636;52.086;5.090;2023-08-07T11:25:29;6.72;;;2.28;;
22939;SDS011;11636;52.086;5.090;2023-08-07T11:28:23;10.60;;;2.50;;
22939;SDS011;11636;52.086;5.090;2023-08-07T11:31:11;10.93;;;2.70;;
22939;SDS011;11636;52.086;5.090;2023-08-07T11:34:05;9.80;;;2.25;;
22939;SDS011;11636;52.086;5.090;2023-08-07T11:36:52;8.73;;;2.33;;
22939;SDS011;11636;52.086;5.090;2023-08-07T11:39:48;13.80;;;3.30;;
22939;SDS011;11636;52.086;5.090;2023-08-07T11:42:42;12.40;;;2.72;;
22939;SDS011;11636;52.086;5.090;2023-08-07T11:45:36;12.18;;;2.83;;
22939;SDS011;11636;52.086;5.090;2023-08-07T11:48:31;9.75;;;2.20;;
22939;SDS011;11636;52.086;5.090;2023-08-07T11:51:28;10.98;;;2.15;;
22939;SDS011;11636;52.086;5.090;2023-08-07T11:54:22;8.80;;;2.63;;
22939;SDS011;11636;52.086;5.090;2023-08-07T11:57:17;7.95;;;2.20;;
22939;SDS011;11636;52.086;5.090;2023-08-07T12:00:08;6.13;;;2.20;;
22939;SDS011;11636;52.086;5.090;2023-08-07T12:03:23;7.80;;;2.25;;
22939;SDS011;11636;52.086;5.090;2023-08-07T12:06:24;6.65;;;2.22;;
22939;SDS011;11636;52.086;5.090;2023-08-07T12:09:18;10.27;;;2.28;;
22939;SDS011;11636;52.086;5.090;2023-08-07T12:12:12;9.52;;;2.15;;
22939;SDS011;11636;52.086;5.090;2023-08-07T12:15:07;9.50;;;2.10;;
22939;SDS011;11636;52.086;5.090;2023-08-07T12:18:01;8.77;;;2.28;;
22939;SDS011;11636;52.086;5.090;2023-08-07T12:21:03;8.70;;;2.30;;
22939;SDS011;11636;52.086;5.090;2023-08-07T12:23:55;9.23;;;2.45;;
22939;SDS011;11636;52.086;5.090;2023-08-07T12:26:49;8.23;;;1.83;;
22939;SDS011;11636;52.086;5.090;2023-08-07T12:29:44;11.10;;;2.10;;
22939;SDS011;11636;52.086;5.090;2023-08-07T12:32:37;9.20;;;2.38;;
22939;SDS011;11636;52.086;5.090;2023-08-07T12:35:31;7.78;;;2.00;;
22939;SDS011;11636;52.086;5.090;2023-08-07T12:38:18;8.25;;;1.92;;
22939;SDS011;11636;52.086;5.090;2023-08-07T12:41:13;7.88;;;2.17;;
22939;SDS011;11636;52.086;5.090;2023-08-07T12:44:04;15.63;;;6.20;;
22939;SDS011;11636;52.086;5.090;2023-08-07T12:46:58;10.88;;;2.15;;
22939;SDS011;11636;52.086;5.090;2023-08-07T12:49:52;7.80;;;1.67;;
22939;SDS011;11636;52.086;5.090;2023-08-07T12:52:46;4.68;;;1.67;;
22939;SDS011;11636;52.086;5.090;2023-08-07T12:55:33;7.13;;;1.70;;
22939;SDS011;11636;52.086;5.090;2023-08-07T12:58:27;5.55;;;1.80;;
22939;SDS011;11636;52.086;5.090;2023-08-07T13:01:16;5.15;;;1.67;;
22939;SDS011;11636;52.086;5.090;2023-08-07T13:04:09;8.43;;;2.20;;
22939;SDS011;11636;52.086;5.090;2023-08-07T13:06:59;7.00;;;1.90;;
22939;SDS011;11636;52.086;5.090;2023-08-07T13:09:52;7.57;;;1.88;;
22939;SDS011;11636;52.086;5.090;2023-08-07T13:12:49;7.03;;;2.03;;
22939;SDS011;11636;52.086;5.090;2023-08-07T13:15:42;8.30;;;2.20;;
22939;SDS011;11636;52.086;5.090;2023-08-07T13:18:40;9.57;;;1.95;;
22939;SDS011;11636;52.086;5.090;2023-08-07T13:21:27;8.48;;;1.85;;
22939;SDS011;11636;52.086;5.090;2023-08-07T13:24:21;6.32;;;1.60;;
22939;SDS011;11636;52.086;5.090;2023-08-07T13:27:08;6.50;;;1.60;;
22939;SDS011;11636;52.086;5.090;2023-08-07T13:30:02;6.10;;;1.65;;
22939;SDS011;11636;52.086;5.090;2023-08-07T13:33:03;5.85;;;2.00;;
22939;SDS011;11636;52.086;5.090;2023-08-07T13:35:57;6.30;;;1.92;;
22939;SDS011;11636;52.086;5.090;2023-08-07T13:38:51;7.70;;;2.33;;
22939;SDS011;11636;52.086;5.090;2023-08-07T13:41:45;8.13;;;1.95;;
22939;SDS011;11636;52.086;5.090;2023-08-07T13:44:33;7.03;;;1.88;;
22939;SDS011;11636;52.086;5.090;2023-08-07T13:47:26;10.73;;;2.17;;
22939;SDS011;11636;52.086;5.090;2023-08-07T13:50:20;6.78;;;2.50;;
22939;SDS011;11636;52.086;5.090;2023-08-07T13:53:14;8.70;;;2.45;;
22939;SDS011;11636;52.086;5.090;2023-08-07T13:56:02;5.68;;;1.90;;
22939;SDS011;11636;52.086;5.090;2023-08-07T13:58:55;7.45;;;2.22;;
22939;SDS011;11636;52.086;5.090;2023-08-07T14:01:42;5.35;;;2.05;;
22939;SDS011;11636;52.086;5.090;2023-08-07T14:04:45;7.07;;;1.80;;
22939;SDS011;11636;52.086;5.090;2023-08-07T14:07:32;5.50;;;2.08;;
22939;SDS011;11636;52.086;5.090;2023-08-07T14:10:26;6.50;;;2.50;;
22939;SDS011;11636;52.086;5.090;2023-08-07T14:13:14;7.40;;;2.50;;
22939;SDS011;11636;52.086;5.090;2023-08-07T14:16:07;6.57;;;1.80;;
22939;SDS011;11636;52.086;5.090;2023-08-07T14:18:54;8.40;;;2.63;;
22939;SDS011;11636;52.086;5.090;2023-08-07T14:21:48;6.75;;;2.20;;
22939;SDS011;11636;52.086;5.090;2023-08-07T14:24:36;5.43;;;2.50;;
22939;SDS011;11636;52.086;5.090;2023-08-07T14:27:29;7.25;;;1.98;;
22939;SDS011;11636;52.086;5.090;2023-08-07T14:30:17;9.18;;;2.30;;
22939;SDS011;11636;52.086;5.090;2023-08-07T14:33:10;6.72;;;2.03;;
22939;SDS011;11636;52.086;5.090;2023-08-07T14:35:58;5.97;;;2.03;;
22939;SDS011;11636;52.086;5.090;2023-08-07T14:38:52;7.60;;;2.28;;
22939;SDS011;11636;52.086;5.090;2023-08-07T14:41:40;7.05;;;2.60;;
22939;SDS011;11636;52.086;5.090;2023-08-07T14:44:33;5.40;;;1.80;;
22939;SDS011;11636;52.086;5.090;2023-08-07T14:47:27;5.18;;;2.50;;
22939;SDS011;11636;52.086;5.090;2023-08-07T14:50:15;6.63;;;2.78;;
22939;SDS011;11636;52.086;5.090;2023-08-07T14:53:08;6.50;;;2.45;;
22939;SDS011;11636;52.086;5.090;2023-08-07T14:55:56;8.05;;;2.60;;
22939;SDS011;11636;52.086;5.090;2023-08-07T14:58:49;8.43;;;3.00;;
22939;SDS011;11636;52.086;5.090;2023-08-07T15:01:43;6.75;;;2.40;;
22939;SDS011;11636;52.086;5.090;2023-08-07T15:04:38;7.15;;;2.55;;
22939;SDS011;11636;52.086;5.090;2023-08-07T15:07:25;7.80;;;2.97;;
22939;SDS011;11636;52.086;5.090;2023-08-07T15:10:18;6.53;;;2.83;;
22939;SDS011;11636;52.086;5.090;2023-08-07T15:13:08;5.60;;;2.13;;
22939;SDS011;11636;52.086;5.090;2023-08-07T15:16:01;8.80;;;2.78;;
22939;SDS011;11636;52.086;5.090;2023-08-07T15:18:49;5.35;;;2.58;;
22939;SDS011;11636;52.086;5.090;2023-08-07T15:21:42;8.38;;;2.90;;
22939;SDS011;11636;52.086;5.090;2023-08-07T15:24:36;5.60;;;2.45;;
22939;SDS011;11636;52.086;5.090;2023-08-07T15:27:30;5.05;;;2.25;;
22939;SDS011;11636;52.086;5.090;2023-08-07T15:30:18;6.45;;;2.40;;
22939;SDS011;11636;52.086;5.090;2023-08-07T15:33:11;4.32;;;2.17;;
22939;SDS011;11636;52.086;5.090;2023-08-07T15:35:59;8.65;;;2.50;;
22939;SDS011;11636;52.086;5.090;2023-08-07T15:38:54;6.78;;;2.67;;
22939;SDS011;11636;52.086;5.090;2023-08-07T15:41:47;5.45;;;2.50;;
22939;SDS011;11636;52.086;5.090;2023-08-07T15:44:35;5.13;;;2.33;;
22939;SDS011;11636;52.086;5.090;2023-08-07T15:47:32;6.15;;;2.40;;
22939;SDS011;11636;52.086;5.090;2023-08-07T15:50:19;8.75;;;2.95;;
22939;SDS011;11636;52.086;5.090;2023-08-07T15:53:12;6.25;;;2.72;;
22939;SDS011;11636;52.086;5.090;2023-08-07T15:56:00;4.95;;;2.45;;
22939;SDS011;11636;52.086;5.090;2023-08-07T15:58:54;7.18;;;2.80;;
22939;SDS011;11636;52.086;5.090;2023-08-07T16:01:41;6.47;;;2.58;;
22939;SDS011;11636;52.086;5.090;2023-08-07T16:04:35;6.75;;;3.17;;
22939;SDS011;11636;52.086;5.090;2023-08-07T16:07:23;6.90;;;2.92;;
22939;SDS011;11636;52.086;5.090;2023-08-07T16:10:17;6.20;;;2.40;;
22939;SDS011;11636;52.086;5.090;2023-08-07T16:13:11;6.32;;;2.70;;
22939;SDS011;11636;52.086;5.090;2023-08-07T16:15:58;6.85;;;2.70;;
22939;SDS011;11636;52.086;5.090;2023-08-07T16:18:52;5.60;;;2.63;;
22939;SDS011;11636;52.086;5.090;2023-08-07T16:21:39;7.00;;;3.13;;
22939;SDS011;11636;52.086;5.090;2023-08-07T16:24:33;7.20;;;3.13;;
22939;SDS011;11636;52.086;5.090;2023-08-07T16:27:27;5.88;;;2.60;;
22939;SDS011;11636;52.086;5.090;2023-08-07T16:30:21;5.38;;;2.55;;
22939;SDS011;11636;52.086;5.090;2023-08-07T16:33:08;6.20;;;2.30;;
22939;SDS011;11636;52.086;5.090;2023-08-07T16:36:02;5.35;;;2.22;;
22939;SDS011;11636;52.086;5.090;2023-08-07T16:38:56;4.50;;;2.28;;
22939;SDS011;11636;52.086;5.090;2023-08-07T16:41:43;4.53;;;2.30;;
22939;SDS011;11636;52.086;5.090;2023-08-07T16:44:39;5.00;;;2.10;;
22939;SDS011;11636;52.086;5.090;2023-08-07T16:47:26;3.92;;;1.80;;
22939;SDS011;11636;52.086;5.090;2023-08-07T16:50:20;4.20;;;2.00;;
22939;SDS011;11636;52.086;5.090;2023-08-07T16:53:07;6.13;;;2.42;;
22939;SDS011;11636;52.086;5.090;2023-08-07T16:56:02;3.78;;;2.03;;
22939;SDS011;11636;52.086;5.090;2023-08-07T16:58:56;5.75;;;2.20;;
22939;SDS011;11636;52.086;5.090;2023-08-07T17:01:50;5.22;;;1.92;;